Главная страница
METAR-TAF:

METAR-TAF

Аэропорты :

Нукус, Узбекистан

широта: 42-28-48N, долгота: 059-37-48E, высота над уровнем моря: 77 м

Текущие метеонаблюдения

Эта сводка был подготовлена 22 минут назад, в 06:30 UTC
Ветер 6 Узел от восточный
Температура 15°C
Влажность 51%
Давление 1027 hPa
Видимость 10 км и более
Нет облачности ниже 1500 м, и нет кучево-дождевой облачности

METAR: UTNN 200630Z 10006KT CAVOK 15/05 Q1027 R33/CLRD60 NOSIG

Время: 11:52 (06:52 UTC)

Прогноз

Эта сводка был подготовлена 1 час и 52 минут назад, в 05:00 UTC
Прогноз действительный с 20-го 06 UTC до 21-го 06 UTC
Ветер 4 Узел переменных направлений
Видимость 10 км и более
Нет облачности ниже 1500 м, и нет кучево-дождевой облачности
временами
С 20-го 08 UTC до 20-го 12 UTC
Ветер 10 Узел от юго-восточный с порывами до 20 Узел

TAF: UTNN 200500Z 2006/2106 VRB04KT CAVOK TEMPO 2008/2012 14010G20KT

Метеонаблюдения и прогнозы для более 4000 аэропортов (сводки METAR и TAF).

Имеющиеся станции представлены на карте желтыми и красными точками.

Чтобы увидеть название станции, наведите на нее мышь.

Затем щелкните, чтобы увидеть метеонаблюдения и метеопрогнозы.

Управление картой: чтобы увеличить масштаб, щелкните зеленые кнопки с черным крестиком; чтобы уменьшить масштаб, щелкните зеленую кнопку с тире; для просмотра соседних карт щелкайте зеленые стрелки.


METAR-TAF: